Sky Ever — DSQX9 — position and weather

sailwx.info

Track history (hours):
 
Tides and Currents Weather Stations Pressure Air Temp Water Temp Dewpoint Dewpoint Depression Visibility Wind Speed Wind Dir Waves Ship Positions

Sky Ever

Last reported at 2014-Nov-28 11:32 UTC. Time now 2014-Nov-29 06:15 UTC.
Position N 34°37' E 134°56'.

Length 76 m; draft 3.6 m.

Type: Cargo ship. MMSI: 441751000.

Date/timePositionNaut miles runAvg speedWind from/ knotsBaromVisibWave heightAir tempDewpointWater temp
2014-Nov-28 11:32N 34°37' E 134°56'7 7.0
2014-Nov-28 10:33N 34°36' E 135°05'9 9.4
2014-Nov-28 09:33N 34°34' E 135°16'7 1.2
2014-Nov-28 03:16N 34°31' E 135°23'1 0.3
2014-Nov-28 01:06N 34°31' E 135°24'0 0.0
2014-Nov-28 00:24N 34°31' E 135°24'0 0.0
2014-Nov-27 22:21N 34°31' E 135°24'2 2.7
2014-Nov-27 21:33N 34°32' E 135°21'0 0.0
2014-Nov-27 20:33N 34°32' E 135°21'0 0.0
2014-Nov-27 19:33N 34°32' E 135°21'0 0.0
2014-Nov-27 18:33N 34°32' E 135°21'0 0.0
2014-Nov-27 17:27N 34°32' E 135°21'0 0.0
2014-Nov-27 16:33N 34°32' E 135°21'0 0.0
2014-Nov-27 13:09N 34°32' E 135°21'5 7.6
2014-Nov-27 12:33N 34°34' E 135°16'9 8.6
2014-Nov-27 11:33N 34°35' E 135°05'  
Track history (hours):
 
Tides and Currents Weather Stations Pressure Air Temp Water Temp Dewpoint Dewpoint Depression Visibility Wind Speed Wind Dir Waves Ship Positions

Sky Ever

Last reported at 2014-Nov-28 11:32 UTC. Time now 2014-Nov-29 06:15 UTC.
Position N 34°37' E 134°56'.

Length 76 m; draft 3.6 m.

Type: Cargo ship. MMSI: 441751000.

Date/timePositionNaut miles runAvg speedWind from/ knotsBaromVisibWave heightAir tempDewpointWater temp
2014-Nov-28 11:32N 34°37' E 134°56'7 7.0
2014-Nov-28 10:33N 34°36' E 135°05'9 9.4
2014-Nov-28 09:33N 34°34' E 135°16'7 1.2
2014-Nov-28 03:16N 34°31' E 135°23'1 0.3
2014-Nov-28 01:06N 34°31' E 135°24'0 0.0
2014-Nov-28 00:24N 34°31' E 135°24'0 0.0
2014-Nov-27 22:21N 34°31' E 135°24'2 2.7
2014-Nov-27 21:33N 34°32' E 135°21'0 0.0
2014-Nov-27 20:33N 34°32' E 135°21'0 0.0
2014-Nov-27 19:33N 34°32' E 135°21'0 0.0
2014-Nov-27 18:33N 34°32' E 135°21'0 0.0
2014-Nov-27 17:27N 34°32' E 135°21'0 0.0
2014-Nov-27 16:33N 34°32' E 135°21'0 0.0
2014-Nov-27 13:09N 34°32' E 135°21'5 7.6
2014-Nov-27 12:33N 34°34' E 135°16'9 8.6
2014-Nov-27 11:33N 34°35' E 135°05'  

Dump ship's entire track history